sensor_id;sensor_type;location;lat;lon;timestamp;pressure;altitude;pressure_sealevel;temperature;humidity
74103;BME280;62853;46.166;3.640;2023-05-08T00:00:26;101906.59;;;15.08;100.00
74103;BME280;62853;46.166;3.640;2023-05-08T00:02:51;101910.00;;;15.10;100.00
74103;BME280;62853;46.166;3.640;2023-05-08T00:05:17;101905.13;;;15.02;100.00
74103;BME280;62853;46.166;3.640;2023-05-08T00:07:42;101904.94;;;15.05;100.00
74103;BME280;62853;46.166;3.640;2023-05-08T00:10:13;101903.25;;;15.04;100.00
74103;BME280;62853;46.166;3.640;2023-05-08T00:12:38;101902.38;;;15.04;100.00
74103;BME280;62853;46.166;3.640;2023-05-08T00:15:04;101904.44;;;14.99;100.00
74103;BME280;62853;46.166;3.640;2023-05-08T00:17:30;101907.00;;;15.00;100.00
74103;BME280;62853;46.166;3.640;2023-05-08T00:19:56;101910.78;;;14.96;100.00
74103;BME280;62853;46.166;3.640;2023-05-08T00:22:22;101904.28;;;15.02;100.00
74103;BME280;62853;46.166;3.640;2023-05-08T00:24:47;101911.97;;;15.06;100.00
74103;BME280;62853;46.166;3.640;2023-05-08T00:27:13;101899.06;;;15.00;100.00
74103;BME280;62853;46.166;3.640;2023-05-08T00:29:38;101900.78;;;15.01;100.00
74103;BME280;62853;46.166;3.640;2023-05-08T00:32:07;101898.22;;;15.00;100.00
74103;BME280;62853;46.166;3.640;2023-05-08T00:34:36;101903.75;;;14.95;100.00
74103;BME280;62853;46.166;3.640;2023-05-08T00:37:01;101909.16;;;14.94;100.00
74103;BME280;62853;46.166;3.640;2023-05-08T00:39:27;101911.97;;;14.91;100.00
74103;BME280;62853;46.166;3.640;2023-05-08T00:41:53;101908.41;;;14.92;100.00
74103;BME280;62853;46.166;3.640;2023-05-08T00:44:21;101911.66;;;14.97;100.00
74103;BME280;62853;46.166;3.640;2023-05-08T00:46:47;101919.44;;;15.00;100.00
74103;BME280;62853;46.166;3.640;2023-05-08T00:49:15;101914.47;;;14.94;100.00
74103;BME280;62853;46.166;3.640;2023-05-08T00:51:41;101912.69;;;14.94;100.00
74103;BME280;62853;46.166;3.640;2023-05-08T00:54:08;101907.84;;;15.01;100.00
74103;BME280;62853;46.166;3.640;2023-05-08T00:56:36;101908.56;;;15.04;100.00
74103;BME280;62853;46.166;3.640;2023-05-08T00:59:03;101900.78;;;15.01;100.00
74103;BME280;62853;46.166;3.640;2023-05-08T01:01:33;101900.94;;;14.98;100.00
74103;BME280;62853;46.166;3.640;2023-05-08T01:04:02;101904.19;;;15.03;100.00
74103;BME280;62853;46.166;3.640;2023-05-08T01:06:27;101895.22;;;14.90;100.00
74103;BME280;62853;46.166;3.640;2023-05-08T01:08:53;101903.09;;;14.92;100.00
74103;BME280;62853;46.166;3.640;2023-05-08T01:16:55;101905.66;;;14.93;100.00
74103;BME280;62853;46.166;3.640;2023-05-08T01:19:56;101905.22;;;15.01;100.00
74103;BME280;62853;46.166;3.640;2023-05-08T01:22:41;101895.81;;;14.95;100.00
74103;BME280;62853;46.166;3.640;2023-05-08T01:33:11;101905.56;;;14.95;100.00
74103;BME280;62853;46.166;3.640;2023-05-08T01:35:44;101894.28;;;14.91;100.00
74103;BME280;62853;46.166;3.640;2023-05-08T01:38:19;101894.78;;;14.98;100.00
74103;BME280;62853;46.166;3.640;2023-05-08T01:41:02;101892.22;;;14.96;100.00
74103;BME280;62853;46.166;3.640;2023-05-08T01:46:07;101913.16;;;15.01;100.00
74103;BME280;62853;46.166;3.640;2023-05-08T01:48:34;101902.84;;;14.96;100.00
74103;BME280;62853;46.166;3.640;2023-05-08T01:51:06;101903.69;;;14.97;100.00
74103;BME280;62853;46.166;3.640;2023-05-08T01:53:39;101903.50;;;15.00;100.00
74103;BME280;62853;46.166;3.640;2023-05-08T01:56:13;101902.38;;;15.04;100.00
74103;BME280;62853;46.166;3.640;2023-05-08T01:58:42;101908.66;;;15.03;100.00
74103;BME280;62853;46.166;3.640;2023-05-08T02:01:09;101901.97;;;14.96;100.00
74103;BME280;62853;46.166;3.640;2023-05-08T02:03:38;101903.34;;;14.87;100.00
74103;BME280;62853;46.166;3.640;2023-05-08T02:06:07;101903.94;;;14.92;100.00
74103;BME280;62853;46.166;3.640;2023-05-08T02:08:35;101906.66;;;14.91;100.00
74103;BME280;62853;46.166;3.640;2023-05-08T02:11:03;101903.34;;;14.87;100.00
74103;BME280;62853;46.166;3.640;2023-05-08T02:13:30;101908.47;;;14.90;100.00
74103;BME280;62853;46.166;3.640;2023-05-08T02:15:58;101909.59;;;14.86;100.00
74103;BME280;62853;46.166;3.640;2023-05-08T02:18:25;101917.28;;;14.91;100.00
74103;BME280;62853;46.166;3.640;2023-05-08T02:20:52;101915.84;;;14.85;100.00
74103;BME280;62853;46.166;3.640;2023-05-08T02:23:22;101915.00;;;14.84;100.00
74103;BME280;62853;46.166;3.640;2023-05-08T02:25:50;101917.63;;;14.84;100.00
74103;BME280;62853;46.166;3.640;2023-05-08T02:28:17;101920.47;;;14.81;100.00
74103;BME280;62853;46.166;3.640;2023-05-08T02:30:43;101914.91;;;14.86;100.00
74103;BME280;62853;46.166;3.640;2023-05-08T02:33:11;101915.16;;;14.81;100.00
74103;BME280;62853;46.166;3.640;2023-05-08T02:35:39;101913.88;;;14.88;100.00
74103;BME280;62853;46.166;3.640;2023-05-08T02:38:06;101918.72;;;14.80;100.00
74103;BME280;62853;46.166;3.640;2023-05-08T02:40:36;101921.06;;;14.86;100.00
74103;BME280;62853;46.166;3.640;2023-05-08T02:43:03;101922.78;;;14.87;100.00
74103;BME280;62853;46.166;3.640;2023-05-08T02:45:38;101923.47;;;14.91;100.00
74103;BME280;62853;46.166;3.640;2023-05-08T02:48:12;101930.63;;;14.89;100.00
74103;BME280;62853;46.166;3.640;2023-05-08T02:50:48;101923.28;;;14.78;100.00
74103;BME280;62853;46.166;3.640;2023-05-08T02:53:31;101925.59;;;14.84;100.00
74103;BME280;62853;46.166;3.640;2023-05-08T02:56:09;101914.56;;;14.76;100.00
74103;BME280;62853;46.166;3.640;2023-05-08T02:58:41;101912.84;;;14.75;100.00
74103;BME280;62853;46.166;3.640;2023-05-08T03:01:27;101923.03;;;14.83;100.00
74103;BME280;62853;46.166;3.640;2023-05-08T03:04:00;101918.50;;;14.69;100.00
74103;BME280;62853;46.166;3.640;2023-05-08T03:06:39;101921.16;;;14.69;100.00
74103;BME280;62853;46.166;3.640;2023-05-08T03:09:06;101914.75;;;14.56;100.00
74103;BME280;62853;46.166;3.640;2023-05-08T03:11:38;101913.19;;;14.69;100.00
74103;BME280;62853;46.166;3.640;2023-05-08T03:14:09;101925.56;;;14.68;100.00
74103;BME280;62853;46.166;3.640;2023-05-08T03:16:36;101917.88;;;14.64;100.00
74103;BME280;62853;46.166;3.640;2023-05-08T03:19:06;101914.88;;;14.70;100.00
74103;BME280;62853;46.166;3.640;2023-05-08T03:21:35;101908.91;;;14.66;100.00
74103;BME280;62853;46.166;3.640;2023-05-08T03:24:02;101916.00;;;14.66;100.00
74103;BME280;62853;46.166;3.640;2023-05-08T03:26:28;101912.47;;;14.65;100.00
74103;BME280;62853;46.166;3.640;2023-05-08T03:28:55;101908.06;;;14.66;100.00
74103;BME280;62853;46.166;3.640;2023-05-08T03:31:21;101912.84;;;14.59;100.00
74103;BME280;62853;46.166;3.640;2023-05-08T03:33:51;101916.53;;;14.55;100.00
74103;BME280;62853;46.166;3.640;2023-05-08T03:36:17;101908.97;;;14.65;100.00
74103;BME280;62853;46.166;3.640;2023-05-08T03:38:43;101907.81;;;14.53;100.00
74103;BME280;62853;46.166;3.640;2023-05-08T03:41:10;101909.63;;;14.52;100.00
74103;BME280;62853;46.166;3.640;2023-05-08T03:43:36;101909.78;;;14.49;100.00
74103;BME280;62853;46.166;3.640;2023-05-08T03:46:04;101900.47;;;14.42;100.00
74103;BME280;62853;46.166;3.640;2023-05-08T03:48:32;101899.69;;;14.40;100.00
74103;BME280;62853;46.166;3.640;2023-05-08T03:51:01;101902.44;;;14.39;100.00
74103;BME280;62853;46.166;3.640;2023-05-08T03:53:28;101903.03;;;14.44;100.00
74103;BME280;62853;46.166;3.640;2023-05-08T03:55:55;101904.38;;;14.35;100.00
74103;BME280;62853;46.166;3.640;2023-05-08T04:01:31;101903.34;;;14.38;100.00
74103;BME280;62853;46.166;3.640;2023-05-08T04:04:18;101906.41;;;14.30;100.00
74103;BME280;62853;46.166;3.640;2023-05-08T04:06:58;101913.50;;;14.29;100.00
74103;BME280;62853;46.166;3.640;2023-05-08T04:09:34;101909.25;;;14.27;100.00
74103;BME280;62853;46.166;3.640;2023-05-08T04:12:04;101907.34;;;14.29;100.00
74103;BME280;62853;46.166;3.640;2023-05-08T04:14:38;101909.25;;;14.27;100.00
74103;BME280;62853;46.166;3.640;2023-05-08T04:17:11;101911.63;;;14.31;100.00
74103;BME280;62853;46.166;3.640;2023-05-08T04:19:41;101913.38;;;14.48;100.00
74103;BME280;62853;46.166;3.640;2023-05-08T04:22:10;101918.56;;;14.34;100.00
74103;BME280;62853;46.166;3.640;2023-05-08T04:24:42;101913.28;;;14.34;100.00
74103;BME280;62853;46.166;3.640;2023-05-08T04:27:08;101915.59;;;14.40;100.00
74103;BME280;62853;46.166;3.640;2023-05-08T04:29:35;101921.75;;;14.41;100.00
74103;BME280;62853;46.166;3.640;2023-05-08T04:32:03;101912.06;;;14.40;100.00
74103;BME280;62853;46.166;3.640;2023-05-08T04:34:29;101923.97;;;14.48;100.00
74103;BME280;62853;46.166;3.640;2023-05-08T04:36:54;101924.41;;;14.41;100.00
74103;BME280;62853;46.166;3.640;2023-05-08T04:39:22;101925.25;;;14.41;100.00
74103;BME280;62853;46.166;3.640;2023-05-08T04:41:48;101931.69;;;14.53;100.00
74103;BME280;62853;46.166;3.640;2023-05-08T04:44:15;101930.84;;;14.52;100.00
74103;BME280;62853;46.166;3.640;2023-05-08T04:46:41;101937.66;;;14.57;100.00
74103;BME280;62853;46.166;3.640;2023-05-08T04:49:06;101933.88;;;14.62;100.00
74103;BME280;62853;46.166;3.640;2023-05-08T04:51:32;101937.22;;;14.66;100.00
74103;BME280;62853;46.166;3.640;2023-05-08T04:53:58;101945.63;;;14.74;100.00
74103;BME280;62853;46.166;3.640;2023-05-08T04:56:23;101943.81;;;14.75;100.00
74103;BME280;62853;46.166;3.640;2023-05-08T04:58:48;101943.88;;;14.73;100.00
74103;BME280;62853;46.166;3.640;2023-05-08T05:01:15;101954.00;;;14.82;100.00
74103;BME280;62853;46.166;3.640;2023-05-08T05:03:40;101955.69;;;14.83;100.00
74103;BME280;62853;46.166;3.640;2023-05-08T05:06:05;101946.75;;;14.86;100.00
74103;BME280;62853;46.166;3.640;2023-05-08T05:08:31;101950.06;;;14.90;100.00
74103;BME280;62853;46.166;3.640;2023-05-08T05:10:56;101961.13;;;14.98;100.00
74103;BME280;62853;46.166;3.640;2023-05-08T05:13:22;101962.03;;;14.97;100.00
74103;BME280;62853;46.166;3.640;2023-05-08T05:15:47;101965.22;;;15.03;100.00
74103;BME280;62853;46.166;3.640;2023-05-08T05:18:15;101970.84;;;14.97;100.00
74103;BME280;62853;46.166;3.640;2023-05-08T05:20:40;101967.09;;;15.01;100.00
74103;BME280;62853;46.166;3.640;2023-05-08T05:23:06;101971.38;;;15.04;100.00
74103;BME280;62853;46.166;3.640;2023-05-08T05:25:31;101976.75;;;15.02;100.00
74103;BME280;62853;46.166;3.640;2023-05-08T05:27:57;101968.72;;;15.04;100.00
74103;BME280;62853;46.166;3.640;2023-05-08T05:30:22;101977.34;;;15.07;100.00
74103;BME280;62853;46.166;3.640;2023-05-08T05:32:47;101967.38;;;15.13;100.00
74103;BME280;62853;46.166;3.640;2023-05-08T05:35:13;101972.75;;;15.11;100.00
74103;BME280;62853;46.166;3.640;2023-05-08T05:37:38;101979.44;;;15.18;100.00
74103;BME280;62853;46.166;3.640;2023-05-08T05:40:04;101980.44;;;15.16;100.00
74103;BME280;62853;46.166;3.640;2023-05-08T05:42:29;101977.72;;;15.17;100.00
74103;BME280;62853;46.166;3.640;2023-05-08T05:44:55;101968.72;;;15.20;100.00
74103;BME280;62853;46.166;3.640;2023-05-08T05:47:21;101983.53;;;15.24;100.00
74103;BME280;62853;46.166;3.640;2023-05-08T05:49:47;101986.09;;;15.25;100.00
74103;BME280;62853;46.166;3.640;2023-05-08T05:52:13;101990.91;;;15.35;100.00
74103;BME280;62853;46.166;3.640;2023-05-08T05:54:38;101985.38;;;15.38;100.00
74103;BME280;62853;46.166;3.640;2023-05-08T05:57:05;101989.59;;;15.42;100.00
74103;BME280;62853;46.166;3.640;2023-05-08T05:59:32;101984.22;;;15.43;100.00
74103;BME280;62853;46.166;3.640;2023-05-08T06:01:57;101991.03;;;15.48;100.00
74103;BME280;62853;46.166;3.640;2023-05-08T06:04:22;101994.03;;;15.57;100.00
74103;BME280;62853;46.166;3.640;2023-05-08T06:06:48;101998.59;;;15.55;100.00
74103;BME280;62853;46.166;3.640;2023-05-08T06:09:13;101992.13;;;15.59;100.00
74103;BME280;62853;46.166;3.640;2023-05-08T06:11:45;101987.78;;;15.58;100.00
74103;BME280;62853;46.166;3.640;2023-05-08T06:14:11;101995.28;;;15.66;100.00
74103;BME280;62853;46.166;3.640;2023-05-08T06:16:36;101995.78;;;15.73;100.00
74103;BME280;62853;46.166;3.640;2023-05-08T06:19:02;101992.91;;;15.77;100.00
74103;BME280;62853;46.166;3.640;2023-05-08T06:21:27;101988.44;;;15.78;100.00
74103;BME280;62853;46.166;3.640;2023-05-08T06:23:53;101993.59;;;15.81;100.00
74103;BME280;62853;46.166;3.640;2023-05-08T06:26:18;101988.69;;;15.89;100.00
74103;BME280;62853;46.166;3.640;2023-05-08T06:28:44;101983.19;;;15.92;100.00
74103;BME280;62853;46.166;3.640;2023-05-08T06:31:10;101985.94;;;15.91;100.00
74103;BME280;62853;46.166;3.640;2023-05-08T06:33:35;101985.84;;;15.92;100.00
74103;BME280;62853;46.166;3.640;2023-05-08T06:36:04;101988.59;;;15.91;100.00
74103;BME280;62853;46.166;3.640;2023-05-08T06:38:30;101994.75;;;15.91;100.00
74103;BME280;62853;46.166;3.640;2023-05-08T06:40:56;101995.50;;;15.93;100.00
74103;BME280;62853;46.166;3.640;2023-05-08T06:43:21;101998.00;;;15.96;100.00
74103;BME280;62853;46.166;3.640;2023-05-08T06:45:47;101993.25;;;16.02;100.00
74103;BME280;62853;46.166;3.640;2023-05-08T06:48:12;101990.59;;;16.02;100.00
74103;BME280;62853;46.166;3.640;2023-05-08T06:50:38;101999.72;;;16.12;100.00
74103;BME280;62853;46.166;3.640;2023-05-08T06:53:05;101997.38;;;16.22;100.00
74103;BME280;62853;46.166;3.640;2023-05-08T06:55:31;102001.47;;;16.27;100.00
74103;BME280;62853;46.166;3.640;2023-05-08T06:57:57;101999.59;;;16.29;100.00
74103;BME280;62853;46.166;3.640;2023-05-08T07:00:22;102005.28;;;16.23;100.00
74103;BME280;62853;46.166;3.640;2023-05-08T07:02:47;102010.59;;;16.23;100.00
74103;BME280;62853;46.166;3.640;2023-05-08T07:05:16;102011.81;;;16.17;100.00
74103;BME280;62853;46.166;3.640;2023-05-08T07:07:42;102012.09;;;16.13;100.00
74103;BME280;62853;46.166;3.640;2023-05-08T07:10:07;102015.59;;;16.13;100.00
74103;BME280;62853;46.166;3.640;2023-05-08T07:12:33;102014.06;;;16.09;100.00
74103;BME280;62853;46.166;3.640;2023-05-08T07:14:58;102017.66;;;16.08;100.00
74103;BME280;62853;46.166;3.640;2023-05-08T07:17:24;102021.38;;;16.06;100.00
74103;BME280;62853;46.166;3.640;2023-05-08T07:19:50;102020.00;;;15.98;100.00
74103;BME280;62853;46.166;3.640;2023-05-08T07:22:15;102016.84;;;15.92;100.00
74103;BME280;62853;46.166;3.640;2023-05-08T07:24:41;102017.81;;;15.91;100.00
74103;BME280;62853;46.166;3.640;2023-05-08T07:27:06;102006.59;;;15.86;100.00
74103;BME280;62853;46.166;3.640;2023-05-08T07:29:33;102015.25;;;15.89;100.00
74103;BME280;62853;46.166;3.640;2023-05-08T07:32:00;102023.03;;;15.92;100.00
74103;BME280;62853;46.166;3.640;2023-05-08T07:34:25;102020.38;;;15.92;100.00
74103;BME280;62853;46.166;3.640;2023-05-08T07:36:51;102013.84;;;15.98;100.00
74103;BME280;62853;46.166;3.640;2023-05-08T07:39:16;102011.00;;;16.01;100.00
74103;BME280;62853;46.166;3.640;2023-05-08T07:41:41;102007.78;;;16.10;100.00
74103;BME280;62853;46.166;3.640;2023-05-08T07:44:07;102009.06;;;16.19;100.00
74103;BME280;62853;46.166;3.640;2023-05-08T07:46:32;102009.09;;;16.33;100.00
74103;BME280;62853;46.166;3.640;2023-05-08T07:48:58;102002.91;;;16.47;100.00
74103;BME280;62853;46.166;3.640;2023-05-08T07:51:23;101999.13;;;16.51;100.00
74103;BME280;62853;46.166;3.640;2023-05-08T07:53:48;101997.88;;;16.57;100.00
74103;BME280;62853;46.166;3.640;2023-05-08T07:56:15;101995.63;;;16.65;100.00
74103;BME280;62853;46.166;3.640;2023-05-08T07:58:40;102003.13;;;16.73;100.00
74103;BME280;62853;46.166;3.640;2023-05-08T08:01:06;102005.63;;;16.90;100.00
74103;BME280;62853;46.166;3.640;2023-05-08T08:03:32;102011.59;;;16.94;100.00
74103;BME280;62853;46.166;3.640;2023-05-08T08:05:57;102001.13;;;16.91;100.00
74103;BME280;62853;46.166;3.640;2023-05-08T08:08:23;102010.66;;;16.95;100.00
74103;BME280;62853;46.166;3.640;2023-05-08T08:10:49;102009.69;;;16.96;100.00
74103;BME280;62853;46.166;3.640;2023-05-08T08:13:14;101992.78;;;16.97;100.00
74103;BME280;62853;46.166;3.640;2023-05-08T08:15:40;102000.25;;;17.19;100.00
74103;BME280;62853;46.166;3.640;2023-05-08T08:18:05;101996.59;;;17.35;100.00
74103;BME280;62853;46.166;3.640;2023-05-08T08:20:31;101997.56;;;17.34;100.00
74103;BME280;62853;46.166;3.640;2023-05-08T08:22:57;101996.19;;;17.41;100.00
74103;BME280;62853;46.166;3.640;2023-05-08T08:25:22;102000.59;;;17.55;100.00
74103;BME280;62853;46.166;3.640;2023-05-08T08:27:48;101988.69;;;17.60;100.00
74103;BME280;62853;46.166;3.640;2023-05-08T08:30:13;101995.44;;;17.79;100.00
74103;BME280;62853;46.166;3.640;2023-05-08T08:32:39;101990.03;;;17.80;100.00
74103;BME280;62853;46.166;3.640;2023-05-08T08:35:05;101984.69;;;17.80;100.00
74103;BME280;62853;46.166;3.640;2023-05-08T08:37:33;101997.34;;;17.91;100.00
74103;BME280;62853;46.166;3.640;2023-05-08T08:39:58;101982.72;;;17.97;100.00
74103;BME280;62853;46.166;3.640;2023-05-08T08:42:24;101989.16;;;18.07;100.00
74103;BME280;62853;46.166;3.640;2023-05-08T08:44:49;101982.75;;;18.22;100.00
74103;BME280;62853;46.166;3.640;2023-05-08T08:47:15;101991.09;;;18.44;100.00
74103;BME280;62853;46.166;3.640;2023-05-08T08:49:46;101978.66;;;18.68;100.00
74103;BME280;62853;46.166;3.640;2023-05-08T08:55:06;101963.63;;;19.17;100.00
74103;BME280;62853;46.166;3.640;2023-05-08T08:57:35;101968.13;;;19.17;100.00
74103;BME280;62853;46.166;3.640;2023-05-08T09:00:05;101963.00;;;19.13;100.00
74103;BME280;62853;46.166;3.640;2023-05-08T09:02:35;101962.50;;;19.32;100.00
74103;BME280;62853;46.166;3.640;2023-05-08T09:05:02;101969.78;;;19.55;100.00
74103;BME280;62853;46.166;3.640;2023-05-08T09:07:28;101974.75;;;19.59;100.00
74103;BME280;62853;46.166;3.640;2023-05-08T09:10:03;101972.78;;;19.50;100.00
74103;BME280;62853;46.166;3.640;2023-05-08T09:12:39;101974.81;;;19.22;100.00
74103;BME280;62853;46.166;3.640;2023-05-08T09:15:05;101977.34;;;19.12;100.00
74103;BME280;62853;46.166;3.640;2023-05-08T09:17:31;101975.75;;;18.97;100.00
74103;BME280;62853;46.166;3.640;2023-05-08T09:19:56;101976.00;;;18.81;100.00
74103;BME280;62853;46.166;3.640;2023-05-08T09:22:25;101979.19;;;18.73;100.00
74103;BME280;62853;46.166;3.640;2023-05-08T09:27:23;101979.75;;;18.53;100.00
74103;BME280;62853;46.166;3.640;2023-05-08T09:32:29;101971.22;;;18.48;100.00
74103;BME280;62853;46.166;3.640;2023-05-08T09:34:55;101970.19;;;18.50;100.00
74103;BME280;62853;46.166;3.640;2023-05-08T09:37:25;101979.88;;;18.51;100.00
74103;BME280;62853;46.166;3.640;2023-05-08T09:39:55;101975.19;;;18.42;100.00
74103;BME280;62853;46.166;3.640;2023-05-08T09:42:39;101974.66;;;18.24;100.00
74103;BME280;62853;46.166;3.640;2023-05-08T09:45:05;101978.88;;;18.01;100.00
74103;BME280;62853;46.166;3.640;2023-05-08T09:47:31;101977.50;;;17.95;100.00
74103;BME280;62853;46.166;3.640;2023-05-08T09:50:08;101972.47;;;17.91;100.00
74103;BME280;62853;46.166;3.640;2023-05-08T09:52:38;101977.91;;;17.89;100.00
74103;BME280;62853;46.166;3.640;2023-05-08T09:55:15;101971.53;;;17.92;100.00
74103;BME280;62853;46.166;3.640;2023-05-08T09:57:54;101979.56;;;18.17;100.00
74103;BME280;62853;46.166;3.640;2023-05-08T10:00:24;101987.78;;;18.40;100.00
74103;BME280;62853;46.166;3.640;2023-05-08T10:03:01;101978.38;;;18.34;100.00
74103;BME280;62853;46.166;3.640;2023-05-08T10:05:31;101986.59;;;18.18;100.00
74103;BME280;62853;46.166;3.640;2023-05-08T10:08:17;101991.41;;;18.13;100.00
74103;BME280;62853;46.166;3.640;2023-05-08T10:10:43;101983.72;;;18.09;100.00
74103;BME280;62853;46.166;3.640;2023-05-08T10:13:09;101989.34;;;18.04;100.00
74103;BME280;62853;46.166;3.640;2023-05-08T10:15:36;101993.28;;;17.98;100.00
74103;BME280;62853;46.166;3.640;2023-05-08T10:18:07;101989.25;;;17.93;100.00
74103;BME280;62853;46.166;3.640;2023-05-08T10:20:41;101988.81;;;17.99;100.00
74103;BME280;62853;46.166;3.640;2023-05-08T10:23:10;101981.50;;;18.28;100.00
74103;BME280;62853;46.166;3.640;2023-05-08T10:25:41;101993.19;;;18.77;100.00
74103;BME280;62853;46.166;3.640;2023-05-08T10:30:43;101984.59;;;19.10;100.00
74103;BME280;62853;46.166;3.640;2023-05-08T10:33:15;101982.31;;;19.17;100.00
74103;BME280;62853;46.166;3.640;2023-05-08T10:35:46;101982.84;;;19.22;100.00
74103;BME280;62853;46.166;3.640;2023-05-08T10:38:13;101979.13;;;19.12;100.00
74103;BME280;62853;46.166;3.640;2023-05-08T10:40:40;101980.56;;;18.92;100.00
74103;BME280;62853;46.166;3.640;2023-05-08T10:43:06;101981.03;;;18.60;100.00
74103;BME280;62853;46.166;3.640;2023-05-08T10:45:36;101976.25;;;18.39;100.00
74103;BME280;62853;46.166;3.640;2023-05-08T10:51:34;101986.25;;;18.74;100.00
74103;BME280;62853;46.166;3.640;2023-05-08T10:54:17;101984.94;;;18.80;100.00
74103;BME280;62853;46.166;3.640;2023-05-08T10:56:43;101975.72;;;19.10;100.00
74103;BME280;62853;46.166;3.640;2023-05-08T10:59:17;101973.69;;;19.38;100.00
74103;BME280;62853;46.166;3.640;2023-05-08T11:01:46;101972.09;;;19.59;100.00
74103;BME280;62853;46.166;3.640;2023-05-08T11:04:19;101973.97;;;19.70;100.00
74103;BME280;62853;46.166;3.640;2023-05-08T11:06:47;101973.09;;;19.69;100.00
74103;BME280;62853;46.166;3.640;2023-05-08T11:09:29;101968.50;;;19.72;100.00
74103;BME280;62853;46.166;3.640;2023-05-08T11:12:25;101967.94;;;19.79;100.00
74103;BME280;62853;46.166;3.640;2023-05-08T11:15:04;101961.94;;;20.11;100.00
74103;BME280;62853;46.166;3.640;2023-05-08T11:17:31;101955.78;;;20.67;100.00
74103;BME280;62853;46.166;3.640;2023-05-08T11:19:59;101946.50;;;21.05;100.00
74103;BME280;62853;46.166;3.640;2023-05-08T11:22:27;101952.91;;;21.25;100.00
74103;BME280;62853;46.166;3.640;2023-05-08T11:32:56;101936.69;;;21.27;100.00
74103;BME280;62853;46.166;3.640;2023-05-08T11:38:13;101934.03;;;21.15;100.00
74103;BME280;62853;46.166;3.640;2023-05-08T11:40:47;101934.25;;;21.24;100.00
74103;BME280;62853;46.166;3.640;2023-05-08T11:46:05;101922.94;;;21.20;100.00
74103;BME280;62853;46.166;3.640;2023-05-08T11:48:33;101926.22;;;21.24;100.00
74103;BME280;62853;46.166;3.640;2023-05-08T11:51:00;101928.34;;;21.41;100.00
74103;BME280;62853;46.166;3.640;2023-05-08T11:53:31;101921.22;;;21.63;100.00
74103;BME280;62853;46.166;3.640;2023-05-08T11:55:59;101920.09;;;21.86;100.00
74103;BME280;62853;46.166;3.640;2023-05-08T11:58:25;101919.09;;;22.08;100.00
74103;BME280;62853;46.166;3.640;2023-05-08T12:00:50;101910.97;;;21.99;100.00
74103;BME280;62853;46.166;3.640;2023-05-08T12:03:20;101915.91;;;21.93;100.00
74103;BME280;62853;46.166;3.640;2023-05-08T12:05:46;101902.63;;;21.71;100.00
74103;BME280;62853;46.166;3.640;2023-05-08T12:08:19;101910.94;;;21.68;100.00
74103;BME280;62853;46.166;3.640;2023-05-08T12:13:24;101905.66;;;21.78;100.00
74103;BME280;62853;46.166;3.640;2023-05-08T12:15:55;101900.44;;;22.07;100.00
74103;BME280;62853;46.166;3.640;2023-05-08T12:18:22;101905.22;;;22.03;100.00
74103;BME280;62853;46.166;3.640;2023-05-08T12:20:54;101907.25;;;22.11;100.00
74103;BME280;62853;46.166;3.640;2023-05-08T12:23:21;101899.66;;;22.26;100.00
74103;BME280;62853;46.166;3.640;2023-05-08T12:25:52;101895.25;;;22.15;100.00
74103;BME280;62853;46.166;3.640;2023-05-08T12:28:18;101897.94;;;22.15;100.00
74103;BME280;62853;46.166;3.640;2023-05-08T12:30:44;101890.34;;;22.20;100.00
74103;BME280;62853;46.166;3.640;2023-05-08T12:33:10;101887.97;;;22.27;100.00
74103;BME280;62853;46.166;3.640;2023-05-08T12:35:37;101889.00;;;22.36;100.00
74103;BME280;62853;46.166;3.640;2023-05-08T12:38:05;101884.00;;;22.62;100.00
74103;BME280;62853;46.166;3.640;2023-05-08T12:40:33;101886.63;;;22.42;100.00
74103;BME280;62853;46.166;3.640;2023-05-08T12:43:00;101884.19;;;22.29;100.00
74103;BME280;62853;46.166;3.640;2023-05-08T12:45:28;101880.25;;;22.34;100.00
74103;BME280;62853;46.166;3.640;2023-05-08T12:48:06;101872.69;;;22.27;100.00
74103;BME280;62853;46.166;3.640;2023-05-08T12:50:39;101865.22;;;22.21;100.00
74103;BME280;62853;46.166;3.640;2023-05-08T12:53:07;101861.47;;;22.13;100.00
74103;BME280;62853;46.166;3.640;2023-05-08T12:55:35;101869.25;;;22.16;100.00
74103;BME280;62853;46.166;3.640;2023-05-08T12:58:04;101865.56;;;22.07;100.00
74103;BME280;62853;46.166;3.640;2023-05-08T13:00:46;101861.63;;;22.11;100.00
74103;BME280;62853;46.166;3.640;2023-05-08T13:03:23;101853.28;;;22.04;100.00
74103;BME280;62853;46.166;3.640;2023-05-08T13:05:54;101850.47;;;22.06;100.00
74103;BME280;62853;46.166;3.640;2023-05-08T13:08:19;101845.31;;;21.93;100.00
74103;BME280;62853;46.166;3.640;2023-05-08T13:10:54;101856.25;;;21.80;100.00
74103;BME280;62853;46.166;3.640;2023-05-08T13:13:25;101847.03;;;21.94;100.00
74103;BME280;62853;46.166;3.640;2023-05-08T13:15:53;101852.22;;;21.96;100.00
74103;BME280;62853;46.166;3.640;2023-05-08T13:18:19;101850.94;;;21.90;100.00
74103;BME280;62853;46.166;3.640;2023-05-08T13:20:45;101851.00;;;22.00;100.00
74103;BME280;62853;46.166;3.640;2023-05-08T13:23:12;101856.34;;;22.00;100.00
74103;BME280;62853;46.166;3.640;2023-05-08T13:25:38;101860.59;;;22.02;100.00
74103;BME280;62853;46.166;3.640;2023-05-08T13:28:06;101852.38;;;21.94;100.00
74103;BME280;62853;46.166;3.640;2023-05-08T13:30:32;101847.34;;;21.80;100.00
74103;BME280;62853;46.166;3.640;2023-05-08T13:32:58;101850.78;;;21.61;100.00
74103;BME280;62853;46.166;3.640;2023-05-08T13:35:23;101843.47;;;21.63;100.00